Time;durP1;ratioP1;P1;durP2;ratioP2;P2;SDS_P1;SDS_P2;PMS_P1;PMS_P2;Temp;Humidity;BMP_temperature;BMP_pressure;BME280_temperature;BME280_humidity;BME280_pressure;Samples;Min_cycle;Max_cycle;Signal;HPM_P1;HPM_P2
2023/04/20 00:04:38;;;;;;;17.83;12.80;;;9.20;99.90;;;;;;4908597;29;20717;-82
2023/04/20 00:39:59;;;;;;;17.87;12.13;;;9.20;99.90;;;;;;4892918;29;20219;-83
2023/04/20 01:00:14;;;;;;;16.00;11.80;;;9.20;99.90;;;;;;4768374;30;20275;-85
2023/04/20 01:25:27;;;;;;;16.33;12.83;;;9.20;99.90;;;;;;4755851;30;20214;-82
2023/04/20 01:46:07;;;;;;;14.77;11.57;;;9.40;99.90;;;;;;4762914;29;20214;-84
2023/04/20 02:11:21;;;;;;;16.60;13.27;;;9.40;99.90;;;;;;4829355;29;20236;-82
2023/04/20 02:31:42;;;;;;;14.53;12.87;;;9.40;99.90;;;;;;4662307;30;20772;-85
2023/04/20 03:02:26;;;;;;;16.90;12.57;;;9.50;99.90;;;;;;4867833;29;20273;-82
2023/04/20 03:32:32;;;;;;;16.00;12.30;;;9.30;99.90;;;;;;4890066;29;20200;-82
2023/04/20 04:08:06;;;;;;;16.83;14.17;;;8.90;99.90;;;;;;4862005;29;20711;-81
2023/04/20 04:38:37;;;;;;;16.73;12.87;;;9.30;99.90;;;;;;4892219;28;20187;-85
2023/04/20 05:08:33;;;;;;;17.80;13.30;;;9.90;99.90;;;;;;4816543;29;20265;-83
2023/04/20 05:29:11;;;;;;;16.60;12.90;;;10.50;99.90;;;;;;4768376;29;20527;-83
2023/04/20 06:34:53;;;;;;;14.03;7.77;;;12.70;90.70;;;;;;4539936;30;20319;-85
2023/04/20 07:00:32;;;;;;;9.37;6.77;;;14.20;82.40;;;;;;4728179;29;20253;-84
2023/04/20 07:31:08;;;;;;;11.47;5.80;;;15.10;80.50;;;;;;4749537;29;20197;-85
2023/04/20 07:51:29;;;;;;;13.97;5.10;;;16.00;78.20;;;;;;4729005;29;20273;-83
2023/04/20 07:55:46;;;;;;;12.87;4.97;;;16.20;75.60;;;;;;4730451;29;20355;-83
2023/04/20 09:07:01;;;;;;;7.53;3.20;;;17.20;54.60;;;;;;4731789;29;20473;-85
2023/04/20 09:27:36;;;;;;;5.47;3.37;;;17.50;49.70;;;;;;4648297;30;20241;-83
2023/04/20 09:58:05;;;;;;;5.60;2.47;;;17.70;45.30;;;;;;4722068;29;20803;-85
2023/04/20 10:23:21;;;;;;;4.63;2.73;;;17.70;42.80;;;;;;4716647;29;20243;-86
2023/04/20 11:03:40;;;;;;;4.53;2.90;;;18.20;40.00;;;;;;4819058;29;21031;-82
2023/04/20 11:29:00;;;;;;;4.30;3.53;;;18.90;39.10;;;;;;4598023;30;20728;-83
2023/04/20 11:44:35;;;;;;;5.27;3.00;;;18.80;39.60;;;;;;4497969;30;20303;-81
2023/04/20 12:09:37;;;;;;;3.73;2.73;;;18.80;38.50;;;;;;4548427;30;20252;-81
2023/04/20 12:29:45;;;;;;;3.60;3.20;;;18.20;38.40;;;;;;4619033;30;21080;-84
2023/04/20 13:05:31;;;;;;;4.37;3.50;;;18.70;36.60;;;;;;4666331;30;20324;-83
2023/04/20 13:35:50;;;;;;;4.57;3.90;;;19.00;36.60;;;;;;4661911;30;20581;-80
2023/04/20 14:52:03;;;;;;;6.90;4.50;;;19.00;35.40;;;;;;4736665;29;20750;-82
2023/04/20 15:12:19;;;;;;;8.63;4.90;;;18.80;36.40;;;;;;4624091;30;21312;-81
2023/04/20 15:42:41;;;;;;;6.13;4.80;;;18.50;35.90;;;;;;4656293;30;20303;-82
2023/04/20 16:12:46;;;;;;;8.03;5.50;;;18.90;35.60;;;;;;4511345;31;20298;-81
2023/04/20 16:53:29;;;;;;;8.57;6.63;;;17.20;38.00;;;;;;4566035;31;20734;-82
2023/04/20 17:59:43;;;;;;;9.07;7.67;;;15.10;41.20;;;;;;4637751;30;20216;-82
2023/04/20 18:04:01;;;;;;;9.67;8.07;;;15.40;40.90;;;;;;4658511;30;20780;-83
2023/04/20 18:24:58;;;;;;;11.00;7.90;;;14.50;42.00;;;;;;4751518;30;20247;-81
2023/04/20 18:50:15;;;;;;;9.50;8.30;;;14.80;41.60;;;;;;4796979;29;20248;-82
2023/04/20 19:25:41;;;;;;;14.87;9.80;;;14.40;42.20;;;;;;4848725;29;20272;-82
2023/04/20 20:00:51;;;;;;;15.47;12.03;;;13.30;44.60;;;;;;4858400;29;20741;-82
2023/04/20 20:30:59;;;;;;;18.13;11.87;;;13.00;45.60;;;;;;4773299;29;20226;-83
2023/04/20 20:46:45;;;;;;;16.97;12.87;;;12.60;48.00;;;;;;4737984;30;20391;-81
2023/04/20 21:11:32;;;;;;;18.27;13.50;;;11.70;66.90;;;;;;4679419;30;20503;-81
2023/04/20 21:37:23;;;;;;;17.43;12.10;;;12.20;67.70;;;;;;4759259;29;20299;-83
2023/04/20 21:57:23;;;;;;;13.87;11.37;;;12.10;68.80;;;;;;4582225;30;20217;-85
2023/04/20 22:38:05;;;;;;;14.50;10.83;;;11.30;74.80;;;;;;4519946;31;20242;-82
2023/04/20 22:57:54;;;;;;;13.70;10.37;;;11.30;75.70;;;;;;4751687;29;20775;-83
2023/04/20 23:18:45;;;;;;;15.50;10.80;;;10.90;77.90;;;;;;4651966;30;20246;-81
2023/04/20 23:48:50;;;;;;;12.40;10.07;;;10.10;80.70;;;;;;4674047;30;20243;-83
